sensor_id;sensor_type;location;lat;lon;timestamp;temperature;humidity
43320;DHT22;28914;48.722;9.332;2024-03-02T00:02:57;8.10;82.50
43320;DHT22;28914;48.722;9.332;2024-03-02T00:08:22;8.10;82.50
43320;DHT22;28914;48.722;9.332;2024-03-02T00:13:43;8.10;82.60
43320;DHT22;28914;48.722;9.332;2024-03-02T00:19:05;8.10;82.50
43320;DHT22;28914;48.722;9.332;2024-03-02T00:24:32;8.10;82.60
43320;DHT22;28914;48.722;9.332;2024-03-02T00:29:52;8.10;82.60
43320;DHT22;28914;48.722;9.332;2024-03-02T00:35:11;8.10;82.50
43320;DHT22;28914;48.722;9.332;2024-03-02T00:40:30;8.10;82.60
43320;DHT22;28914;48.722;9.332;2024-03-02T00:45:50;8.10;82.70
43320;DHT22;28914;48.722;9.332;2024-03-02T00:51:09;8.00;82.50
43320;DHT22;28914;48.722;9.332;2024-03-02T00:56:28;8.00;82.50
43320;DHT22;28914;48.722;9.332;2024-03-02T01:01:48;8.00;82.70
43320;DHT22;28914;48.722;9.332;2024-03-02T01:07:08;8.00;82.90
43320;DHT22;28914;48.722;9.332;2024-03-02T01:12:28;8.00;83.00
43320;DHT22;28914;48.722;9.332;2024-03-02T01:17:47;8.00;82.90
43320;DHT22;28914;48.722;9.332;2024-03-02T01:23:06;7.90;82.80
43320;DHT22;28914;48.722;9.332;2024-03-02T01:28:25;7.90;82.70
43320;DHT22;28914;48.722;9.332;2024-03-02T01:33:45;7.90;82.80
43320;DHT22;28914;48.722;9.332;2024-03-02T01:39:03;7.90;82.90
43320;DHT22;28914;48.722;9.332;2024-03-02T01:44:23;7.90;82.90
43320;DHT22;28914;48.722;9.332;2024-03-02T01:49:42;7.90;83.10
43320;DHT22;28914;48.722;9.332;2024-03-02T01:55:02;7.90;83.00
43320;DHT22;28914;48.722;9.332;2024-03-02T02:00:21;7.80;82.90
43320;DHT22;28914;48.722;9.332;2024-03-02T02:05:42;7.80;82.90
43320;DHT22;28914;48.722;9.332;2024-03-02T02:11:01;7.80;82.90
43320;DHT22;28914;48.722;9.332;2024-03-02T02:16:21;7.70;82.80
43320;DHT22;28914;48.722;9.332;2024-03-02T02:21:43;7.70;82.70
43320;DHT22;28914;48.722;9.332;2024-03-02T02:27:03;7.70;82.70
43320;DHT22;28914;48.722;9.332;2024-03-02T02:32:22;7.60;82.60
43320;DHT22;28914;48.722;9.332;2024-03-02T02:37:42;7.60;82.60
43320;DHT22;28914;48.722;9.332;2024-03-02T02:43:01;7.60;82.60
43320;DHT22;28914;48.722;9.332;2024-03-02T02:48:21;7.50;82.50
43320;DHT22;28914;48.722;9.332;2024-03-02T02:53:40;7.40;82.40
43320;DHT22;28914;48.722;9.332;2024-03-02T02:58:59;7.30;82.40
43320;DHT22;28914;48.722;9.332;2024-03-02T03:04:18;7.30;82.30
43320;DHT22;28914;48.722;9.332;2024-03-02T03:09:38;7.20;82.30
43320;DHT22;28914;48.722;9.332;2024-03-02T03:15:00;7.10;82.60
43320;DHT22;28914;48.722;9.332;2024-03-02T03:20:19;7.00;82.70
43320;DHT22;28914;48.722;9.332;2024-03-02T03:25:41;6.90;82.70
43320;DHT22;28914;48.722;9.332;2024-03-02T03:31:00;6.90;82.90
43320;DHT22;28914;48.722;9.332;2024-03-02T03:36:20;6.90;83.00
43320;DHT22;28914;48.722;9.332;2024-03-02T03:41:43;6.80;83.00
43320;DHT22;28914;48.722;9.332;2024-03-02T03:47:02;6.80;82.80
43320;DHT22;28914;48.722;9.332;2024-03-02T03:52:21;6.70;82.70
43320;DHT22;28914;48.722;9.332;2024-03-02T03:57:40;6.60;82.70
43320;DHT22;28914;48.722;9.332;2024-03-02T04:02:59;6.60;82.80
43320;DHT22;28914;48.722;9.332;2024-03-02T04:08:19;6.50;82.80
43320;DHT22;28914;48.722;9.332;2024-03-02T04:13:38;6.40;82.80
43320;DHT22;28914;48.722;9.332;2024-03-02T04:18:58;6.40;82.90
43320;DHT22;28914;48.722;9.332;2024-03-02T04:24:17;6.30;82.80
43320;DHT22;28914;48.722;9.332;2024-03-02T04:29:36;6.20;82.90
43320;DHT22;28914;48.722;9.332;2024-03-02T04:34:55;6.10;83.00
43320;DHT22;28914;48.722;9.332;2024-03-02T04:40:14;6.10;83.20
43320;DHT22;28914;48.722;9.332;2024-03-02T04:45:33;6.00;83.20
43320;DHT22;28914;48.722;9.332;2024-03-02T04:50:53;6.00;83.40
43320;DHT22;28914;48.722;9.332;2024-03-02T04:56:12;6.00;83.20
43320;DHT22;28914;48.722;9.332;2024-03-02T05:01:50;5.90;83.20
43320;DHT22;28914;48.722;9.332;2024-03-02T05:07:09;5.80;83.40
43320;DHT22;28914;48.722;9.332;2024-03-02T05:12:29;5.80;83.30
43320;DHT22;28914;48.722;9.332;2024-03-02T05:18:08;5.70;83.40
43320;DHT22;28914;48.722;9.332;2024-03-02T05:23:27;5.60;83.40
43320;DHT22;28914;48.722;9.332;2024-03-02T05:28:46;5.60;83.60
43320;DHT22;28914;48.722;9.332;2024-03-02T05:34:06;5.50;83.60
43320;DHT22;28914;48.722;9.332;2024-03-02T05:39:25;5.50;83.60
43320;DHT22;28914;48.722;9.332;2024-03-02T05:44:44;5.50;83.70
43320;DHT22;28914;48.722;9.332;2024-03-02T05:50:03;5.40;83.60
43320;DHT22;28914;48.722;9.332;2024-03-02T05:55:22;5.40;83.60
43320;DHT22;28914;48.722;9.332;2024-03-02T06:00:42;5.40;83.60
43320;DHT22;28914;48.722;9.332;2024-03-02T06:06:01;5.40;83.60
43320;DHT22;28914;48.722;9.332;2024-03-02T06:11:21;5.30;83.60
43320;DHT22;28914;48.722;9.332;2024-03-02T06:16:40;5.30;83.60
43320;DHT22;28914;48.722;9.332;2024-03-02T06:21:59;5.20;83.60
43320;DHT22;28914;48.722;9.332;2024-03-02T06:27:18;5.30;83.80
43320;DHT22;28914;48.722;9.332;2024-03-02T06:32:37;5.30;83.90
43320;DHT22;28914;48.722;9.332;2024-03-02T06:37:56;5.30;83.80
43320;DHT22;28914;48.722;9.332;2024-03-02T06:43:16;5.30;83.90
43320;DHT22;28914;48.722;9.332;2024-03-02T06:48:35;5.30;84.00
43320;DHT22;28914;48.722;9.332;2024-03-02T06:53:54;5.30;84.50
43320;DHT22;28914;48.722;9.332;2024-03-02T06:59:14;5.30;84.60
43320;DHT22;28914;48.722;9.332;2024-03-02T07:04:33;5.30;84.80
43320;DHT22;28914;48.722;9.332;2024-03-02T07:09:52;5.50;85.20
43320;DHT22;28914;48.722;9.332;2024-03-02T07:15:11;5.60;85.60
43320;DHT22;28914;48.722;9.332;2024-03-02T07:20:47;5.80;86.00
43320;DHT22;28914;48.722;9.332;2024-03-02T07:26:08;6.00;86.20
43320;DHT22;28914;48.722;9.332;2024-03-02T07:31:27;6.30;86.40
43320;DHT22;28914;48.722;9.332;2024-03-02T07:36:47;6.60;86.50
43320;DHT22;28914;48.722;9.332;2024-03-02T07:42:06;6.90;86.70
43320;DHT22;28914;48.722;9.332;2024-03-02T07:47:25;7.20;86.40
43320;DHT22;28914;48.722;9.332;2024-03-02T07:52:44;7.50;86.50
43320;DHT22;28914;48.722;9.332;2024-03-02T07:58:04;7.90;86.40
43320;DHT22;28914;48.722;9.332;2024-03-02T08:03:23;8.20;85.40
43320;DHT22;28914;48.722;9.332;2024-03-02T08:08:43;8.50;85.00
43320;DHT22;28914;48.722;9.332;2024-03-02T08:14:01;8.70;84.70
43320;DHT22;28914;48.722;9.332;2024-03-02T08:19:21;9.00;84.50
43320;DHT22;28914;48.722;9.332;2024-03-02T08:24:40;9.30;84.30
43320;DHT22;28914;48.722;9.332;2024-03-02T08:30:00;9.60;83.80
43320;DHT22;28914;48.722;9.332;2024-03-02T08:35:19;9.80;83.30
43320;DHT22;28914;48.722;9.332;2024-03-02T08:40:38;10.10;83.00
43320;DHT22;28914;48.722;9.332;2024-03-02T08:45:57;10.30;82.30
43320;DHT22;28914;48.722;9.332;2024-03-02T08:51:17;10.60;82.30
43320;DHT22;28914;48.722;9.332;2024-03-02T08:56:36;10.90;82.30
43320;DHT22;28914;48.722;9.332;2024-03-02T09:01:55;11.20;82.20
43320;DHT22;28914;48.722;9.332;2024-03-02T09:07:14;11.50;82.30
43320;DHT22;28914;48.722;9.332;2024-03-02T09:12:34;12.00;82.20
43320;DHT22;28914;48.722;9.332;2024-03-02T09:17:53;12.50;81.60
43320;DHT22;28914;48.722;9.332;2024-03-02T09:23:12;13.20;80.70
43320;DHT22;28914;48.722;9.332;2024-03-02T09:28:31;14.10;79.20
43320;DHT22;28914;48.722;9.332;2024-03-02T09:33:51;15.70;80.80
43320;DHT22;28914;48.722;9.332;2024-03-02T09:39:10;17.90;80.20
43320;DHT22;28914;48.722;9.332;2024-03-02T09:44:29;20.40;78.70
43320;DHT22;28914;48.722;9.332;2024-03-02T09:49:48;22.70;74.30
43320;DHT22;28914;48.722;9.332;2024-03-02T09:55:08;24.80;68.60
43320;DHT22;28914;48.722;9.332;2024-03-02T10:00:28;26.90;64.60
43320;DHT22;28914;48.722;9.332;2024-03-02T10:05:47;28.90;54.90
43320;DHT22;28914;48.722;9.332;2024-03-02T10:11:06;30.40;52.90
43320;DHT22;28914;48.722;9.332;2024-03-02T10:16:25;31.90;50.30
43320;DHT22;28914;48.722;9.332;2024-03-02T10:21:51;33.00;47.00
43320;DHT22;28914;48.722;9.332;2024-03-02T10:32:38;35.20;44.70
43320;DHT22;28914;48.722;9.332;2024-03-02T10:37:58;36.30;41.40
43320;DHT22;28914;48.722;9.332;2024-03-02T10:43:19;37.10;36.70
43320;DHT22;28914;48.722;9.332;2024-03-02T10:48:39;37.50;36.40
43320;DHT22;28914;48.722;9.332;2024-03-02T10:54:00;38.00;37.90
43320;DHT22;28914;48.722;9.332;2024-03-02T10:59:27;38.50;31.30
43320;DHT22;28914;48.722;9.332;2024-03-02T11:04:49;38.70;34.00
43320;DHT22;28914;48.722;9.332;2024-03-02T11:10:09;38.80;35.10
43320;DHT22;28914;48.722;9.332;2024-03-02T11:15:29;39.10;32.10
43320;DHT22;28914;48.722;9.332;2024-03-02T11:20:49;39.30;29.90
43320;DHT22;28914;48.722;9.332;2024-03-02T11:26:18;39.40;31.70
43320;DHT22;28914;48.722;9.332;2024-03-02T11:31:57;39.40;30.20
43320;DHT22;28914;48.722;9.332;2024-03-02T11:37:19;39.50;30.80
43320;DHT22;28914;48.722;9.332;2024-03-02T11:42:39;39.50;29.00
43320;DHT22;28914;48.722;9.332;2024-03-02T11:47:59;39.40;31.10
43320;DHT22;28914;48.722;9.332;2024-03-02T11:53:20;39.00;30.70
43320;DHT22;28914;48.722;9.332;2024-03-02T11:58:39;38.40;30.50
43320;DHT22;28914;48.722;9.332;2024-03-02T12:04:00;37.50;29.50
43320;DHT22;28914;48.722;9.332;2024-03-02T12:09:21;36.30;28.50
43320;DHT22;28914;48.722;9.332;2024-03-02T12:14:40;34.80;29.20
43320;DHT22;28914;48.722;9.332;2024-03-02T12:20:11;33.20;28.10
43320;DHT22;28914;48.722;9.332;2024-03-02T12:25:31;31.30;30.10
43320;DHT22;28914;48.722;9.332;2024-03-02T12:30:52;29.80;31.40
43320;DHT22;28914;48.722;9.332;2024-03-02T12:36:13;28.50;32.00
43320;DHT22;28914;48.722;9.332;2024-03-02T12:41:32;27.20;32.70
43320;DHT22;28914;48.722;9.332;2024-03-02T12:46:52;25.90;34.30
43320;DHT22;28914;48.722;9.332;2024-03-02T12:52:13;24.70;35.70
43320;DHT22;28914;48.722;9.332;2024-03-02T12:57:33;23.70;37.10
43320;DHT22;28914;48.722;9.332;2024-03-02T13:02:53;22.90;37.70
43320;DHT22;28914;48.722;9.332;2024-03-02T13:08:12;22.30;38.70
43320;DHT22;28914;48.722;9.332;2024-03-02T13:13:31;21.90;39.50
43320;DHT22;28914;48.722;9.332;2024-03-02T13:18:50;21.60;40.00
43320;DHT22;28914;48.722;9.332;2024-03-02T13:24:09;21.50;40.10
43320;DHT22;28914;48.722;9.332;2024-03-02T13:29:29;21.30;39.60
43320;DHT22;28914;48.722;9.332;2024-03-02T13:34:48;21.00;39.80
43320;DHT22;28914;48.722;9.332;2024-03-02T13:40:07;20.80;40.30
43320;DHT22;28914;48.722;9.332;2024-03-02T13:45:31;20.70;40.80
43320;DHT22;28914;48.722;9.332;2024-03-02T13:50:51;20.60;40.70
43320;DHT22;28914;48.722;9.332;2024-03-02T13:56:11;20.50;40.50
43320;DHT22;28914;48.722;9.332;2024-03-02T14:01:30;20.40;40.80
43320;DHT22;28914;48.722;9.332;2024-03-02T14:06:50;20.30;40.60
43320;DHT22;28914;48.722;9.332;2024-03-02T14:12:10;20.20;40.70
43320;DHT22;28914;48.722;9.332;2024-03-02T14:17:30;20.10;41.00
43320;DHT22;28914;48.722;9.332;2024-03-02T14:22:51;20.00;41.10
43320;DHT22;28914;48.722;9.332;2024-03-02T14:28:10;20.00;40.50
43320;DHT22;28914;48.722;9.332;2024-03-02T14:33:29;19.90;41.20
43320;DHT22;28914;48.722;9.332;2024-03-02T14:38:48;19.80;40.20
43320;DHT22;28914;48.722;9.332;2024-03-02T14:44:08;19.70;40.80
43320;DHT22;28914;48.722;9.332;2024-03-02T14:49:28;19.60;40.80
43320;DHT22;28914;48.722;9.332;2024-03-02T14:54:47;19.50;40.70
43320;DHT22;28914;48.722;9.332;2024-03-02T15:00:07;19.50;41.20
43320;DHT22;28914;48.722;9.332;2024-03-02T15:05:27;19.30;40.90
43320;DHT22;28914;48.722;9.332;2024-03-02T15:10:46;19.20;41.30
43320;DHT22;28914;48.722;9.332;2024-03-02T15:16:05;19.10;41.70
43320;DHT22;28914;48.722;9.332;2024-03-02T15:21:24;19.00;42.50
43320;DHT22;28914;48.722;9.332;2024-03-02T15:26:44;18.80;44.40
43320;DHT22;28914;48.722;9.332;2024-03-02T15:32:03;18.70;44.00
43320;DHT22;28914;48.722;9.332;2024-03-02T15:37:25;18.50;44.60
43320;DHT22;28914;48.722;9.332;2024-03-02T15:42:45;18.30;45.10
43320;DHT22;28914;48.722;9.332;2024-03-02T15:48:04;18.10;45.60
43320;DHT22;28914;48.722;9.332;2024-03-02T15:53:23;17.90;46.30
43320;DHT22;28914;48.722;9.332;2024-03-02T15:58:43;17.80;46.90
43320;DHT22;28914;48.722;9.332;2024-03-02T16:04:02;17.60;47.20
43320;DHT22;28914;48.722;9.332;2024-03-02T16:09:21;17.50;47.60
43320;DHT22;28914;48.722;9.332;2024-03-02T16:14:40;17.40;47.90
43320;DHT22;28914;48.722;9.332;2024-03-02T16:19:59;17.20;48.30
43320;DHT22;28914;48.722;9.332;2024-03-02T16:25:19;17.10;49.10
43320;DHT22;28914;48.722;9.332;2024-03-02T16:30:38;17.00;49.50
43320;DHT22;28914;48.722;9.332;2024-03-02T16:35:57;16.90;49.70
43320;DHT22;28914;48.722;9.332;2024-03-02T16:41:16;16.70;49.90
43320;DHT22;28914;48.722;9.332;2024-03-02T16:46:36;16.60;50.00
43320;DHT22;28914;48.722;9.332;2024-03-02T16:51:57;16.50;50.10
43320;DHT22;28914;48.722;9.332;2024-03-02T16:57:17;16.40;50.40
43320;DHT22;28914;48.722;9.332;2024-03-02T17:02:36;16.30;50.80
43320;DHT22;28914;48.722;9.332;2024-03-02T17:07:56;16.10;51.50
43320;DHT22;28914;48.722;9.332;2024-03-02T17:13:17;16.00;52.40
43320;DHT22;28914;48.722;9.332;2024-03-02T17:18:36;15.90;53.40
43320;DHT22;28914;48.722;9.332;2024-03-02T17:23:55;15.80;54.70
43320;DHT22;28914;48.722;9.332;2024-03-02T17:29:15;15.70;55.10
43320;DHT22;28914;48.722;9.332;2024-03-02T17:34:34;15.60;55.40
43320;DHT22;28914;48.722;9.332;2024-03-02T17:39:53;15.60;56.20
43320;DHT22;28914;48.722;9.332;2024-03-02T17:45:13;15.50;56.90
43320;DHT22;28914;48.722;9.332;2024-03-02T17:50:32;15.40;57.20
43320;DHT22;28914;48.722;9.332;2024-03-02T17:55:52;15.40;58.10
43320;DHT22;28914;48.722;9.332;2024-03-02T18:01:11;15.30;58.50
43320;DHT22;28914;48.722;9.332;2024-03-02T18:06:30;15.30;58.30
43320;DHT22;28914;48.722;9.332;2024-03-02T18:11:49;15.20;58.60
43320;DHT22;28914;48.722;9.332;2024-03-02T18:17:08;15.20;58.70
43320;DHT22;28914;48.722;9.332;2024-03-02T18:22:28;15.20;59.10
43320;DHT22;28914;48.722;9.332;2024-03-02T18:27:47;15.10;58.70
43320;DHT22;28914;48.722;9.332;2024-03-02T18:33:06;15.00;59.10
43320;DHT22;28914;48.722;9.332;2024-03-02T18:38:25;15.00;59.40
43320;DHT22;28914;48.722;9.332;2024-03-02T18:43:45;14.90;59.60
43320;DHT22;28914;48.722;9.332;2024-03-02T18:49:04;14.90;60.20
43320;DHT22;28914;48.722;9.332;2024-03-02T18:54:23;14.80;60.30
43320;DHT22;28914;48.722;9.332;2024-03-02T18:59:43;14.80;60.10
43320;DHT22;28914;48.722;9.332;2024-03-02T19:05:04;14.70;60.30
43320;DHT22;28914;48.722;9.332;2024-03-02T19:10:24;14.70;61.10
43320;DHT22;28914;48.722;9.332;2024-03-02T19:15:43;14.60;61.00
43320;DHT22;28914;48.722;9.332;2024-03-02T19:21:02;14.60;62.30
43320;DHT22;28914;48.722;9.332;2024-03-02T19:26:21;14.50;61.80
43320;DHT22;28914;48.722;9.332;2024-03-02T19:31:41;14.40;61.90
43320;DHT22;28914;48.722;9.332;2024-03-02T19:37:00;14.50;62.60
43320;DHT22;28914;48.722;9.332;2024-03-02T19:42:19;14.40;62.30
43320;DHT22;28914;48.722;9.332;2024-03-02T19:47:38;14.40;62.60
43320;DHT22;28914;48.722;9.332;2024-03-02T19:52:57;14.40;63.30
43320;DHT22;28914;48.722;9.332;2024-03-02T19:58:17;14.40;62.20
43320;DHT22;28914;48.722;9.332;2024-03-02T20:03:36;14.30;62.70
43320;DHT22;28914;48.722;9.332;2024-03-02T20:08:55;14.30;62.50
43320;DHT22;28914;48.722;9.332;2024-03-02T20:14:14;14.30;62.40
43320;DHT22;28914;48.722;9.332;2024-03-02T20:19:38;14.20;62.30
43320;DHT22;28914;48.722;9.332;2024-03-02T20:24:58;14.10;63.10
43320;DHT22;28914;48.722;9.332;2024-03-02T20:30:17;13.90;63.30
43320;DHT22;28914;48.722;9.332;2024-03-02T20:35:36;13.80;63.70
43320;DHT22;28914;48.722;9.332;2024-03-02T20:40:55;13.70;63.90
43320;DHT22;28914;48.722;9.332;2024-03-02T20:46:15;13.60;64.10
43320;DHT22;28914;48.722;9.332;2024-03-02T20:51:34;13.50;64.60
43320;DHT22;28914;48.722;9.332;2024-03-02T20:56:54;13.40;64.30
43320;DHT22;28914;48.722;9.332;2024-03-02T21:02:14;13.30;64.90
43320;DHT22;28914;48.722;9.332;2024-03-02T21:07:33;13.20;65.90
43320;DHT22;28914;48.722;9.332;2024-03-02T21:12:57;13.10;66.10
43320;DHT22;28914;48.722;9.332;2024-03-02T21:18:18;12.90;65.60
43320;DHT22;28914;48.722;9.332;2024-03-02T21:23:37;12.90;65.70
43320;DHT22;28914;48.722;9.332;2024-03-02T21:28:57;12.80;67.20
43320;DHT22;28914;48.722;9.332;2024-03-02T21:34:16;12.70;68.20
43320;DHT22;28914;48.722;9.332;2024-03-02T21:39:35;12.60;67.80
43320;DHT22;28914;48.722;9.332;2024-03-02T21:44:54;12.50;67.90
43320;DHT22;28914;48.722;9.332;2024-03-02T21:50:14;12.50;67.60
43320;DHT22;28914;48.722;9.332;2024-03-02T21:55:35;12.50;68.00
43320;DHT22;28914;48.722;9.332;2024-03-02T22:00:55;12.40;68.20
43320;DHT22;28914;48.722;9.332;2024-03-02T22:06:14;12.40;68.80
43320;DHT22;28914;48.722;9.332;2024-03-02T22:11:34;12.40;69.50
43320;DHT22;28914;48.722;9.332;2024-03-02T22:16:53;12.40;69.40
43320;DHT22;28914;48.722;9.332;2024-03-02T22:22:12;12.40;69.60
43320;DHT22;28914;48.722;9.332;2024-03-02T22:27:32;12.30;70.30
43320;DHT22;28914;48.722;9.332;2024-03-02T22:32:52;12.30;69.60
43320;DHT22;28914;48.722;9.332;2024-03-02T22:38:11;12.30;69.70
43320;DHT22;28914;48.722;9.332;2024-03-02T22:43:35;12.30;69.60
43320;DHT22;28914;48.722;9.332;2024-03-02T22:48:54;12.20;69.20
43320;DHT22;28914;48.722;9.332;2024-03-02T22:54:14;12.20;69.20
43320;DHT22;28914;48.722;9.332;2024-03-02T22:59:33;12.10;69.60
43320;DHT22;28914;48.722;9.332;2024-03-02T23:04:52;12.00;69.70
43320;DHT22;28914;48.722;9.332;2024-03-02T23:10:11;11.90;69.60
43320;DHT22;28914;48.722;9.332;2024-03-02T23:15:30;11.90;69.50
43320;DHT22;28914;48.722;9.332;2024-03-02T23:20:50;11.90;69.40
43320;DHT22;28914;48.722;9.332;2024-03-02T23:26:09;11.90;69.30
43320;DHT22;28914;48.722;9.332;2024-03-02T23:31:29;11.80;69.20
43320;DHT22;28914;48.722;9.332;2024-03-02T23:36:48;11.80;70.00
43320;DHT22;28914;48.722;9.332;2024-03-02T23:42:08;11.60;69.00
43320;DHT22;28914;48.722;9.332;2024-03-02T23:47:28;11.50;69.30
43320;DHT22;28914;48.722;9.332;2024-03-02T23:52:47;11.40;69.70
43320;DHT22;28914;48.722;9.332;2024-03-02T23:58:06;11.30;69.80
